ITY35P KDEN-CYVR
Flight info
| Callsign | ITY35P |
|---|---|
| Flight time | 2h 29m |
| Altitude | 37000 |
| Route | DDRTH1 DDRTH DCT DBS DCT LKT DCT METOW GRIZZ8 |
| Aircraft | A359/H-SDE2E3GHIJ3J4J5LM1ORWXY/LB1D1 |
Departure
| Time | 2026-05-06 14:22 |
|---|---|
| Airport | Denver International Airport (KDEN) |
Arrival
| Time | 2026-05-06 16:51 |
|---|---|
| Airport | Vancouver International Airport (CYVR) |
| Time | Latitude | Longitude | Altitude | Speed | Heading |
|---|---|---|---|---|---|
| 2026-05-06 14:02 | 39.83828 | -104.66517 | 5404 ft | 0 kts | 360° |
| 2026-05-06 14:03 | 39.83827 | -104.66517 | 5404 ft | 0 kts | 360° |
| 2026-05-06 14:15 | 39.83829 | -104.66517 | 5419 ft | 1 kts | 360° |
| 2026-05-06 14:15 | 39.83852 | -104.66513 | 5410 ft | 6 kts | 15° |
| 2026-05-06 14:15 | 39.83878 | -104.66462 | 5405 ft | 9 kts | 82° |
| 2026-05-06 14:15 | 39.83904 | -104.66385 | 5409 ft | 9 kts | 34° |
| 2026-05-06 14:16 | 39.83979 | -104.66361 | 5408 ft | 14 kts | 22° |
| 2026-05-06 14:16 | 39.84060 | -104.66271 | 5415 ft | 17 kts | 25° |
| 2026-05-06 14:16 | 39.84194 | -104.66249 | 5414 ft | 22 kts | 2° |
| 2026-05-06 14:16 | 39.84363 | -104.66246 | 5419 ft | 26 kts | 0° |
| 2026-05-06 14:17 | 39.84557 | -104.66244 | 5411 ft | 30 kts | 0° |
| 2026-05-06 14:17 | 39.84777 | -104.66241 | 5407 ft | 34 kts | 360° |
| 2026-05-06 14:17 | 39.85021 | -104.66239 | 5398 ft | 37 kts | 0° |
| 2026-05-06 14:17 | 39.85203 | -104.66337 | 5390 ft | 28 kts | 278° |
| 2026-05-06 14:18 | 39.85227 | -104.66610 | 5393 ft | 33 kts | 274° |
| 2026-05-06 14:18 | 39.85232 | -104.66925 | 5383 ft | 36 kts | 271° |
| 2026-05-06 14:18 | 39.85235 | -104.67261 | 5384 ft | 34 kts | 270° |
| 2026-05-06 14:18 | 39.85237 | -104.67540 | 5390 ft | 32 kts | 270° |
| 2026-05-06 14:19 | 39.85239 | -104.67841 | 5390 ft | 35 kts | 270° |
| 2026-05-06 14:19 | 39.85241 | -104.68110 | 5389 ft | 22 kts | 270° |
| 2026-05-06 14:19 | 39.85210 | -104.68332 | 5386 ft | 28 kts | 263° |
| 2026-05-06 14:19 | 39.85207 | -104.68608 | 5378 ft | 34 kts | 269° |
| 2026-05-06 14:20 | 39.85199 | -104.68945 | 5362 ft | 41 kts | 268° |
| 2026-05-06 14:20 | 39.85196 | -104.69316 | 5350 ft | 38 kts | 270° |
| 2026-05-06 14:20 | 39.85208 | -104.69593 | 5348 ft | 30 kts | 290° |
| 2026-05-06 14:20 | 39.85357 | -104.69653 | 5343 ft | 6 kts | 0° |
| 2026-05-06 14:21 | 39.85358 | -104.69653 | 5343 ft | 0 kts | 0° |
| 2026-05-06 14:21 | 39.85372 | -104.69653 | 5342 ft | 4 kts | 1° |
| 2026-05-06 14:21 | 39.85374 | -104.69653 | 5346 ft | 0 kts | 1° |
| 2026-05-06 14:21 | 39.85473 | -104.69651 | 5344 ft | 45 kts | 1° |
| 2026-05-06 14:22 | 39.86013 | -104.69645 | 5346 ft | 108 kts | 0° |
| 2026-05-06 14:22 | 39.86957 | -104.69634 | 5367 ft | 159 kts | 0° |
| 2026-05-06 14:22 | 39.88026 | -104.69620 | 6219 ft | 149 kts | 1° |
| 2026-05-06 14:22 | 39.89093 | -104.69595 | 6865 ft | 163 kts | 2° |
| 2026-05-06 14:23 | 39.90327 | -104.69567 | 7146 ft | 193 kts | 2° |
| 2026-05-06 14:23 | 39.91770 | -104.69538 | 7400 ft | 226 kts | 2° |
| 2026-05-06 14:23 | 39.93446 | -104.69505 | 7793 ft | 254 kts | 2° |
| 2026-05-06 14:23 | 39.95262 | -104.69467 | 8544 ft | 266 kts | 2° |
| 2026-05-06 14:24 | 39.97140 | -104.69428 | 9380 ft | 274 kts | 2° |
| 2026-05-06 14:24 | 39.99059 | -104.69386 | 9856 ft | 278 kts | 2° |
| 2026-05-06 14:24 | 40.01000 | -104.69345 | 9995 ft | 279 kts | 2° |
| 2026-05-06 14:24 | 40.02944 | -104.69333 | 9995 ft | 281 kts | 358° |
| 2026-05-06 14:25 | 40.04861 | -104.69841 | 10054 ft | 283 kts | 341° |
| 2026-05-06 14:25 | 40.06708 | -104.70791 | 10267 ft | 299 kts | 338° |
| 2026-05-06 14:25 | 40.08708 | -104.71891 | 10581 ft | 325 kts | 338° |
| 2026-05-06 14:25 | 40.10867 | -104.73041 | 11120 ft | 342 kts | 339° |
| 2026-05-06 14:26 | 40.13113 | -104.74181 | 11936 ft | 350 kts | 339° |
| 2026-05-06 14:26 | 40.15402 | -104.75342 | 12807 ft | 356 kts | 339° |
| 2026-05-06 14:26 | 40.17724 | -104.76524 | 13674 ft | 361 kts | 338° |
| 2026-05-06 14:26 | 40.20077 | -104.77724 | 14562 ft | 363 kts | 338° |
| 2026-05-06 14:27 | 40.22440 | -104.78933 | 15394 ft | 367 kts | 337° |
| 2026-05-06 14:27 | 40.24800 | -104.80142 | 16167 ft | 371 kts | 337° |
| 2026-05-06 14:27 | 40.27222 | -104.81384 | 16994 ft | 376 kts | 337° |
| 2026-05-06 14:27 | 40.29670 | -104.82641 | 17855 ft | 380 kts | 336° |
| 2026-05-06 14:28 | 40.32145 | -104.83913 | 18686 ft | 385 kts | 336° |
| 2026-05-06 14:28 | 40.34651 | -104.85206 | 19439 ft | 389 kts | 336° |
| 2026-05-06 14:28 | 40.37184 | -104.86503 | 20212 ft | 393 kts | 336° |
| 2026-05-06 14:28 | 40.39743 | -104.87813 | 20989 ft | 397 kts | 335° |
| 2026-05-06 14:29 | 40.42325 | -104.89138 | 21738 ft | 401 kts | 334° |
| 2026-05-06 14:29 | 40.44899 | -104.90461 | 22479 ft | 405 kts | 334° |
| 2026-05-06 14:29 | 40.47534 | -104.91818 | 23229 ft | 409 kts | 333° |
| 2026-05-06 14:29 | 40.50194 | -104.93188 | 23930 ft | 412 kts | 333° |
| 2026-05-06 14:30 | 40.52875 | -104.94573 | 24572 ft | 415 kts | 333° |
| 2026-05-06 14:30 | 40.55570 | -104.95962 | 25220 ft | 418 kts | 333° |
| 2026-05-06 14:30 | 40.58288 | -104.97365 | 25889 ft | 421 kts | 333° |
| 2026-05-06 14:30 | 40.61023 | -104.98779 | 26471 ft | 425 kts | 333° |
| 2026-05-06 14:31 | 40.63791 | -105.00211 | 27099 ft | 429 kts | 334° |
| 2026-05-06 14:31 | 40.66540 | -105.01634 | 27725 ft | 432 kts | 334° |
| 2026-05-06 14:31 | 40.69342 | -105.03086 | 28329 ft | 435 kts | 334° |
| 2026-05-06 14:31 | 40.72157 | -105.04576 | 28920 ft | 437 kts | 332° |
| 2026-05-06 14:32 | 40.74859 | -105.06405 | 29480 ft | 436 kts | 324° |
| 2026-05-06 14:32 | 40.77296 | -105.08770 | 30026 ft | 435 kts | 315° |
| 2026-05-06 14:32 | 40.79408 | -105.11636 | 30447 ft | 438 kts | 308° |
| 2026-05-06 14:32 | 40.81341 | -105.14786 | 30784 ft | 444 kts | 307° |
| 2026-05-06 14:33 | 40.83255 | -105.18002 | 31180 ft | 447 kts | 307° |
| 2026-05-06 14:33 | 40.85157 | -105.21200 | 31571 ft | 451 kts | 307° |
| 2026-05-06 14:33 | 40.87102 | -105.24465 | 31932 ft | 454 kts | 307° |
| 2026-05-06 14:33 | 40.89065 | -105.27756 | 32287 ft | 458 kts | 307° |
| 2026-05-06 14:34 | 40.91044 | -105.31079 | 32623 ft | 461 kts | 307° |
| 2026-05-06 14:34 | 40.93035 | -105.34420 | 32966 ft | 465 kts | 308° |
| 2026-05-06 14:34 | 40.95046 | -105.37797 | 33290 ft | 468 kts | 308° |
| 2026-05-06 14:34 | 40.97062 | -105.41186 | 33668 ft | 470 kts | 308° |
| 2026-05-06 14:35 | 40.99083 | -105.44587 | 34167 ft | 469 kts | 308° |
| 2026-05-06 14:35 | 41.01098 | -105.47981 | 34563 ft | 469 kts | 308° |
| 2026-05-06 14:35 | 41.03085 | -105.51331 | 34911 ft | 469 kts | 308° |
| 2026-05-06 14:35 | 41.05098 | -105.54731 | 35256 ft | 469 kts | 308° |
| 2026-05-06 14:36 | 41.07112 | -105.58135 | 35611 ft | 469 kts | 308° |
| 2026-05-06 14:36 | 41.09124 | -105.61540 | 35965 ft | 469 kts | 307° |
| 2026-05-06 14:36 | 41.11133 | -105.64945 | 36284 ft | 469 kts | 308° |
| 2026-05-06 14:36 | 41.13141 | -105.68352 | 36658 ft | 468 kts | 308° |
| 2026-05-06 14:37 | 41.15142 | -105.71751 | 37004 ft | 468 kts | 308° |
| 2026-05-06 14:37 | 41.17126 | -105.75121 | 37130 ft | 470 kts | 308° |
| 2026-05-06 14:37 | 41.21142 | -105.81958 | 37139 ft | 469 kts | 308° |
| 2026-05-06 14:38 | 41.25150 | -105.88798 | 37140 ft | 469 kts | 308° |
| 2026-05-06 14:38 | 41.29156 | -105.95650 | 37188 ft | 469 kts | 308° |
| 2026-05-06 14:39 | 41.33155 | -106.02505 | 37167 ft | 469 kts | 309° |
| 2026-05-06 14:39 | 41.37119 | -106.09315 | 37174 ft | 468 kts | 309° |
| 2026-05-06 14:40 | 41.41099 | -106.16166 | 37174 ft | 468 kts | 309° |
| 2026-05-06 14:40 | 41.45080 | -106.23036 | 37170 ft | 468 kts | 309° |
| 2026-05-06 14:41 | 41.48894 | -106.30065 | 37175 ft | 469 kts | 305° |
| 2026-05-06 14:41 | 41.52341 | -106.37389 | 37166 ft | 469 kts | 304° |
| 2026-05-06 14:42 | 41.55784 | -106.44757 | 37174 ft | 467 kts | 304° |
| 2026-05-06 14:42 | 41.59273 | -106.52068 | 37177 ft | 467 kts | 305° |
| 2026-05-06 14:43 | 41.62788 | -106.59368 | 37176 ft | 467 kts | 305° |
| 2026-05-06 14:43 | 41.66278 | -106.66619 | 37192 ft | 467 kts | 305° |
| 2026-05-06 14:44 | 41.69782 | -106.73928 | 37185 ft | 466 kts | 306° |
| 2026-05-06 14:45 | 41.75005 | -106.84857 | 37189 ft | 464 kts | 306° |
| 2026-05-06 14:45 | 41.78481 | -106.92153 | 37171 ft | 464 kts | 306° |
| 2026-05-06 14:46 | 41.81918 | -106.99386 | 37165 ft | 463 kts | 306° |
| 2026-05-06 14:46 | 41.85377 | -107.06681 | 37144 ft | 463 kts | 306° |
| 2026-05-06 14:47 | 41.88824 | -107.13970 | 37157 ft | 462 kts | 306° |
| 2026-05-06 14:47 | 41.92259 | -107.21252 | 37164 ft | 462 kts | 306° |
| 2026-05-06 14:48 | 41.95668 | -107.28494 | 37170 ft | 462 kts | 306° |
| 2026-05-06 14:48 | 41.99102 | -107.35806 | 37182 ft | 462 kts | 306° |
| 2026-05-06 14:49 | 42.02528 | -107.43123 | 37205 ft | 462 kts | 307° |
| 2026-05-06 14:49 | 42.05940 | -107.50426 | 37206 ft | 461 kts | 307° |
| 2026-05-06 14:50 | 42.09323 | -107.57683 | 37224 ft | 461 kts | 307° |
| 2026-05-06 14:50 | 42.12732 | -107.65011 | 37222 ft | 462 kts | 307° |
| 2026-05-06 14:51 | 42.16133 | -107.72344 | 37226 ft | 462 kts | 307° |
| 2026-05-06 14:51 | 42.19530 | -107.79687 | 37219 ft | 461 kts | 307° |
| 2026-05-06 14:52 | 42.22894 | -107.86975 | 37225 ft | 461 kts | 307° |
| 2026-05-06 14:52 | 42.26280 | -107.94326 | 37225 ft | 461 kts | 307° |
| 2026-05-06 14:53 | 42.29663 | -108.01688 | 37221 ft | 461 kts | 307° |
| 2026-05-06 14:53 | 42.33039 | -108.09055 | 37223 ft | 461 kts | 307° |
| 2026-05-06 14:54 | 42.36390 | -108.16386 | 37222 ft | 461 kts | 307° |
| 2026-05-06 14:54 | 42.39755 | -108.23769 | 37223 ft | 461 kts | 308° |
| 2026-05-06 14:55 | 42.43117 | -108.31159 | 37219 ft | 461 kts | 308° |
| 2026-05-06 14:55 | 42.46471 | -108.38551 | 37219 ft | 461 kts | 307° |
| 2026-05-06 14:56 | 42.49800 | -108.45908 | 37200 ft | 461 kts | 308° |
| 2026-05-06 14:56 | 42.53138 | -108.53304 | 37209 ft | 459 kts | 308° |
| 2026-05-06 14:57 | 42.56466 | -108.60694 | 37193 ft | 459 kts | 308° |
| 2026-05-06 14:57 | 42.59786 | -108.68081 | 37189 ft | 459 kts | 308° |
| 2026-05-06 14:58 | 42.63102 | -108.75482 | 37219 ft | 459 kts | 308° |
| 2026-05-06 14:58 | 42.66386 | -108.82840 | 37228 ft | 458 kts | 308° |
| 2026-05-06 14:59 | 42.69677 | -108.90227 | 37229 ft | 456 kts | 309° |
| 2026-05-06 14:59 | 42.72960 | -108.97601 | 37227 ft | 456 kts | 308° |
| 2026-05-06 15:00 | 42.76234 | -109.04988 | 37223 ft | 456 kts | 308° |
| 2026-05-06 15:00 | 42.79483 | -109.12328 | 37181 ft | 455 kts | 309° |
| 2026-05-06 15:01 | 42.82742 | -109.19719 | 37217 ft | 454 kts | 309° |
| 2026-05-06 15:01 | 42.85987 | -109.27085 | 37219 ft | 454 kts | 309° |
| 2026-05-06 15:02 | 42.89229 | -109.34458 | 37209 ft | 453 kts | 309° |
| 2026-05-06 15:02 | 42.92441 | -109.41780 | 37212 ft | 452 kts | 309° |
| 2026-05-06 15:03 | 42.95665 | -109.49157 | 37200 ft | 452 kts | 309° |
| 2026-05-06 15:03 | 42.98870 | -109.56505 | 37207 ft | 450 kts | 310° |
| 2026-05-06 15:04 | 43.02068 | -109.63851 | 37202 ft | 450 kts | 309° |
| 2026-05-06 15:04 | 43.05257 | -109.71209 | 37197 ft | 450 kts | 309° |
| 2026-05-06 15:05 | 43.08421 | -109.78527 | 37204 ft | 451 kts | 309° |
| 2026-05-06 15:05 | 43.11611 | -109.85912 | 37194 ft | 451 kts | 309° |
| 2026-05-06 15:06 | 43.14786 | -109.93297 | 37209 ft | 450 kts | 309° |
| 2026-05-06 15:06 | 43.17942 | -110.00646 | 37193 ft | 450 kts | 309° |
| 2026-05-06 15:07 | 43.21112 | -110.08043 | 37189 ft | 450 kts | 309° |
| 2026-05-06 15:07 | 43.24269 | -110.15437 | 37192 ft | 449 kts | 309° |
| 2026-05-06 15:08 | 43.27425 | -110.22846 | 37191 ft | 449 kts | 309° |
| 2026-05-06 15:08 | 43.30569 | -110.30246 | 37190 ft | 449 kts | 309° |
| 2026-05-06 15:09 | 43.33690 | -110.37605 | 37191 ft | 449 kts | 309° |
| 2026-05-06 15:09 | 43.36828 | -110.45019 | 37193 ft | 448 kts | 309° |
| 2026-05-06 15:10 | 43.39957 | -110.52430 | 37192 ft | 448 kts | 309° |
| 2026-05-06 15:10 | 43.43082 | -110.59854 | 37196 ft | 448 kts | 309° |
| 2026-05-06 15:11 | 43.46197 | -110.67281 | 37192 ft | 447 kts | 309° |
| 2026-05-06 15:11 | 43.49277 | -110.74645 | 37151 ft | 447 kts | 309° |
| 2026-05-06 15:12 | 43.52376 | -110.82066 | 37200 ft | 447 kts | 309° |
| 2026-05-06 15:12 | 43.55463 | -110.89481 | 37207 ft | 446 kts | 309° |
| 2026-05-06 15:13 | 43.58552 | -110.96928 | 37216 ft | 447 kts | 309° |
| 2026-05-06 15:13 | 43.61614 | -111.04313 | 37200 ft | 446 kts | 309° |
| 2026-05-06 15:14 | 43.64686 | -111.11750 | 37202 ft | 445 kts | 308° |
| 2026-05-06 15:14 | 43.67229 | -111.17918 | 37202 ft | 445 kts | 308° |
| 2026-05-06 15:15 | 43.70806 | -111.26614 | 37192 ft | 445 kts | 308° |
| 2026-05-06 15:15 | 43.73839 | -111.34007 | 37186 ft | 445 kts | 308° |
| 2026-05-06 15:16 | 43.76885 | -111.41452 | 37192 ft | 444 kts | 308° |
| 2026-05-06 15:16 | 43.79912 | -111.48882 | 37174 ft | 443 kts | 308° |
| 2026-05-06 15:17 | 43.82918 | -111.56275 | 37174 ft | 443 kts | 308° |
| 2026-05-06 15:17 | 43.85938 | -111.63714 | 37189 ft | 443 kts | 308° |
| 2026-05-06 15:18 | 43.88955 | -111.71167 | 37192 ft | 443 kts | 308° |
| 2026-05-06 15:18 | 43.91963 | -111.78618 | 37192 ft | 443 kts | 308° |
| 2026-05-06 15:19 | 43.94965 | -111.86075 | 37188 ft | 443 kts | 307° |
| 2026-05-06 15:19 | 43.97942 | -111.93486 | 37178 ft | 443 kts | 307° |
| 2026-05-06 15:20 | 44.00938 | -112.00966 | 37175 ft | 443 kts | 307° |
| 2026-05-06 15:20 | 44.03926 | -112.08450 | 37164 ft | 442 kts | 307° |
| 2026-05-06 15:21 | 44.06905 | -112.15929 | 37152 ft | 442 kts | 307° |
| 2026-05-06 15:21 | 44.10065 | -112.23134 | 37153 ft | 436 kts | 312° |
| 2026-05-06 15:22 | 44.13540 | -112.30041 | 37146 ft | 435 kts | 313° |
| 2026-05-06 15:22 | 44.17063 | -112.36910 | 37142 ft | 436 kts | 313° |
| 2026-05-06 15:23 | 44.20589 | -112.43794 | 37132 ft | 437 kts | 313° |
| 2026-05-06 15:23 | 44.24084 | -112.50653 | 37130 ft | 437 kts | 313° |
| 2026-05-06 15:24 | 44.27599 | -112.57575 | 37128 ft | 437 kts | 312° |
| 2026-05-06 15:24 | 44.31109 | -112.64503 | 37121 ft | 438 kts | 312° |
| 2026-05-06 15:25 | 44.34622 | -112.71453 | 37105 ft | 438 kts | 312° |
| 2026-05-06 15:25 | 44.38130 | -112.78413 | 37109 ft | 438 kts | 312° |
| 2026-05-06 15:26 | 44.41604 | -112.85325 | 37101 ft | 438 kts | 312° |
| 2026-05-06 15:26 | 44.45106 | -112.92294 | 37110 ft | 438 kts | 312° |
| 2026-05-06 15:27 | 44.48599 | -112.99272 | 37100 ft | 438 kts | 312° |
| 2026-05-06 15:27 | 44.52088 | -113.06260 | 37101 ft | 437 kts | 312° |
| 2026-05-06 15:28 | 44.55550 | -113.13209 | 37097 ft | 438 kts | 312° |
| 2026-05-06 15:28 | 44.59032 | -113.20221 | 37095 ft | 438 kts | 311° |
| 2026-05-06 15:29 | 44.62513 | -113.27244 | 37091 ft | 439 kts | 311° |
| 2026-05-06 15:29 | 44.65995 | -113.34287 | 37099 ft | 439 kts | 311° |
| 2026-05-06 15:30 | 44.69451 | -113.41294 | 37100 ft | 439 kts | 311° |
| 2026-05-06 15:30 | 44.72923 | -113.48350 | 37097 ft | 438 kts | 311° |
| 2026-05-06 15:31 | 44.76383 | -113.55399 | 37103 ft | 437 kts | 311° |
| 2026-05-06 15:31 | 44.79837 | -113.62452 | 37107 ft | 437 kts | 310° |
| 2026-05-06 15:32 | 44.84985 | -113.72994 | 37104 ft | 437 kts | 310° |
| 2026-05-06 15:32 | 44.88426 | -113.80063 | 37111 ft | 437 kts | 310° |
| 2026-05-06 15:33 | 44.91863 | -113.87145 | 37108 ft | 437 kts | 310° |
| 2026-05-06 15:33 | 44.95292 | -113.94225 | 37115 ft | 438 kts | 310° |
| 2026-05-06 15:34 | 44.98708 | -114.01257 | 37103 ft | 438 kts | 310° |
| 2026-05-06 15:34 | 45.02136 | -114.08391 | 37128 ft | 439 kts | 309° |
| 2026-05-06 15:35 | 45.05773 | -114.15271 | 37101 ft | 435 kts | 314° |
| 2026-05-06 15:35 | 45.09638 | -114.21839 | 37097 ft | 434 kts | 314° |
| 2026-05-06 15:36 | 45.13464 | -114.28399 | 37100 ft | 435 kts | 314° |
| 2026-05-06 15:36 | 45.17272 | -114.35067 | 37099 ft | 435 kts | 313° |
| 2026-05-06 15:37 | 45.21059 | -114.41768 | 37118 ft | 435 kts | 313° |
| 2026-05-06 15:37 | 45.24831 | -114.48465 | 37111 ft | 434 kts | 313° |
| 2026-05-06 15:38 | 45.28568 | -114.55116 | 37109 ft | 434 kts | 313° |
| 2026-05-06 15:38 | 45.32327 | -114.61820 | 37092 ft | 434 kts | 313° |
| 2026-05-06 15:39 | 45.36077 | -114.68527 | 37114 ft | 434 kts | 313° |
| 2026-05-06 15:39 | 45.39833 | -114.75245 | 37109 ft | 434 kts | 313° |
| 2026-05-06 15:40 | 45.43559 | -114.81940 | 37077 ft | 435 kts | 312° |
| 2026-05-06 15:40 | 45.47311 | -114.88700 | 37099 ft | 435 kts | 312° |
| 2026-05-06 15:41 | 45.51057 | -114.95472 | 37094 ft | 435 kts | 311° |
| 2026-05-06 15:41 | 45.54783 | -115.02260 | 37090 ft | 434 kts | 311° |
| 2026-05-06 15:42 | 45.58513 | -115.09053 | 37117 ft | 434 kts | 312° |
| 2026-05-06 15:42 | 45.62231 | -115.15770 | 37101 ft | 434 kts | 312° |
| 2026-05-06 15:43 | 45.65966 | -115.22549 | 37103 ft | 434 kts | 311° |
| 2026-05-06 15:43 | 45.69690 | -115.29343 | 37094 ft | 434 kts | 311° |
| 2026-05-06 15:44 | 45.73381 | -115.36100 | 37094 ft | 434 kts | 311° |
| 2026-05-06 15:44 | 45.77090 | -115.42910 | 37079 ft | 434 kts | 311° |
| 2026-05-06 15:45 | 45.80803 | -115.49745 | 37080 ft | 435 kts | 311° |
| 2026-05-06 15:45 | 45.84515 | -115.56587 | 37052 ft | 434 kts | 311° |
| 2026-05-06 15:46 | 45.88216 | -115.63428 | 37040 ft | 434 kts | 311° |
| 2026-05-06 15:46 | 45.91891 | -115.70246 | 37028 ft | 434 kts | 311° |
| 2026-05-06 15:47 | 45.95592 | -115.77121 | 37046 ft | 435 kts | 311° |
| 2026-05-06 15:47 | 45.99296 | -115.84013 | 37055 ft | 436 kts | 310° |
| 2026-05-06 15:48 | 46.02996 | -115.90929 | 37058 ft | 436 kts | 310° |
| 2026-05-06 15:48 | 46.06688 | -115.97841 | 37074 ft | 435 kts | 310° |
| 2026-05-06 15:49 | 46.10345 | -116.04702 | 37056 ft | 434 kts | 310° |
| 2026-05-06 15:49 | 46.14017 | -116.11613 | 37051 ft | 434 kts | 310° |
| 2026-05-06 15:50 | 46.17688 | -116.18543 | 37040 ft | 434 kts | 310° |
| 2026-05-06 15:50 | 46.21332 | -116.25427 | 37010 ft | 435 kts | 309° |
| 2026-05-06 15:51 | 46.24401 | -116.31240 | 37008 ft | 434 kts | 309° |
| 2026-05-06 15:51 | 46.28648 | -116.39310 | 37006 ft | 434 kts | 309° |
| 2026-05-06 15:52 | 46.32299 | -116.46265 | 37006 ft | 434 kts | 309° |
| 2026-05-06 15:52 | 46.35943 | -116.53225 | 37005 ft | 434 kts | 309° |
| 2026-05-06 15:53 | 46.39559 | -116.60148 | 37016 ft | 434 kts | 309° |
| 2026-05-06 15:53 | 46.43200 | -116.67134 | 37000 ft | 435 kts | 308° |
| 2026-05-06 15:54 | 46.46230 | -116.72960 | 37010 ft | 436 kts | 308° |
| 2026-05-06 15:54 | 46.50480 | -116.81177 | 37015 ft | 435 kts | 308° |
| 2026-05-06 15:55 | 46.54091 | -116.88153 | 37027 ft | 435 kts | 308° |
| 2026-05-06 15:55 | 46.57728 | -116.95191 | 37040 ft | 435 kts | 308° |
| 2026-05-06 15:56 | 46.61352 | -117.02230 | 37044 ft | 435 kts | 308° |
| 2026-05-06 15:56 | 46.64978 | -117.09292 | 37053 ft | 435 kts | 308° |
| 2026-05-06 15:57 | 46.68571 | -117.16306 | 37054 ft | 435 kts | 307° |
| 2026-05-06 15:57 | 46.72180 | -117.23373 | 37011 ft | 435 kts | 307° |
| 2026-05-06 15:58 | 46.75785 | -117.30452 | 37009 ft | 435 kts | 307° |
| 2026-05-06 15:58 | 46.79389 | -117.37543 | 37007 ft | 435 kts | 307° |
| 2026-05-06 15:59 | 46.82982 | -117.44632 | 36999 ft | 435 kts | 307° |
| 2026-05-06 15:59 | 46.86551 | -117.51693 | 36983 ft | 435 kts | 307° |
| 2026-05-06 16:00 | 46.90138 | -117.58805 | 36966 ft | 435 kts | 307° |
| 2026-05-06 16:00 | 46.93724 | -117.65934 | 36986 ft | 436 kts | 306° |
| 2026-05-06 16:01 | 46.97319 | -117.73099 | 36984 ft | 437 kts | 306° |
| 2026-05-06 16:01 | 47.00883 | -117.80224 | 36974 ft | 437 kts | 306° |
| 2026-05-06 16:02 | 47.04470 | -117.87411 | 36972 ft | 437 kts | 306° |
| 2026-05-06 16:02 | 47.08052 | -117.94607 | 36971 ft | 437 kts | 306° |
| 2026-05-06 16:03 | 47.11628 | -118.01809 | 36969 ft | 437 kts | 305° |
| 2026-05-06 16:03 | 47.15181 | -118.08983 | 36966 ft | 437 kts | 305° |
| 2026-05-06 16:04 | 47.18750 | -118.16209 | 36967 ft | 437 kts | 305° |
| 2026-05-06 16:04 | 47.22313 | -118.23443 | 36967 ft | 437 kts | 305° |
| 2026-05-06 16:05 | 47.25870 | -118.30683 | 36971 ft | 437 kts | 305° |
| 2026-05-06 16:05 | 47.29427 | -118.37940 | 36967 ft | 437 kts | 304° |
| 2026-05-06 16:06 | 47.32955 | -118.45158 | 36963 ft | 437 kts | 304° |
| 2026-05-06 16:06 | 47.36503 | -118.52436 | 36962 ft | 437 kts | 304° |
| 2026-05-06 16:07 | 47.40049 | -118.59728 | 36955 ft | 437 kts | 304° |
| 2026-05-06 16:07 | 47.43589 | -118.67029 | 36966 ft | 438 kts | 304° |
| 2026-05-06 16:08 | 47.47130 | -118.74354 | 36966 ft | 438 kts | 304° |
| 2026-05-06 16:08 | 47.50640 | -118.81630 | 36967 ft | 438 kts | 304° |
| 2026-05-06 16:09 | 47.54172 | -118.88973 | 36963 ft | 438 kts | 304° |
| 2026-05-06 16:09 | 47.57695 | -118.96315 | 36964 ft | 438 kts | 304° |
| 2026-05-06 16:10 | 47.61219 | -119.03681 | 36965 ft | 438 kts | 303° |
| 2026-05-06 16:10 | 47.64714 | -119.11005 | 36965 ft | 438 kts | 303° |
| 2026-05-06 16:11 | 47.68227 | -119.18386 | 36963 ft | 438 kts | 303° |
| 2026-05-06 16:11 | 47.71735 | -119.25777 | 36962 ft | 438 kts | 303° |
| 2026-05-06 16:12 | 47.75242 | -119.33185 | 36964 ft | 438 kts | 303° |
| 2026-05-06 16:12 | 47.78718 | -119.40548 | 36956 ft | 438 kts | 303° |
| 2026-05-06 16:13 | 47.82215 | -119.47976 | 36954 ft | 438 kts | 303° |
| 2026-05-06 16:13 | 47.85702 | -119.55404 | 36954 ft | 438 kts | 303° |
| 2026-05-06 16:14 | 47.89189 | -119.62848 | 36941 ft | 438 kts | 303° |
| 2026-05-06 16:14 | 47.92642 | -119.70248 | 36951 ft | 438 kts | 302° |
| 2026-05-06 16:15 | 47.96121 | -119.77717 | 36939 ft | 438 kts | 302° |
| 2026-05-06 16:15 | 47.99591 | -119.85186 | 36938 ft | 438 kts | 302° |
| 2026-05-06 16:16 | 48.03054 | -119.92664 | 36939 ft | 438 kts | 302° |
| 2026-05-06 16:16 | 48.06490 | -120.00112 | 36944 ft | 439 kts | 302° |
| 2026-05-06 16:17 | 48.09943 | -120.07625 | 36942 ft | 438 kts | 302° |
| 2026-05-06 16:17 | 48.13187 | -120.15319 | 36952 ft | 436 kts | 292° |
| 2026-05-06 16:18 | 48.14957 | -120.23963 | 36959 ft | 434 kts | 284° |
| 2026-05-06 16:18 | 48.16478 | -120.32653 | 36970 ft | 434 kts | 284° |
| 2026-05-06 16:19 | 48.18012 | -120.41391 | 36973 ft | 433 kts | 284° |
| 2026-05-06 16:19 | 48.19537 | -120.50125 | 37021 ft | 433 kts | 284° |
| 2026-05-06 16:20 | 48.21049 | -120.58819 | 37010 ft | 432 kts | 284° |
| 2026-05-06 16:20 | 48.22549 | -120.67455 | 36998 ft | 429 kts | 284° |
| 2026-05-06 16:21 | 48.24041 | -120.76117 | 37051 ft | 430 kts | 284° |
| 2026-05-06 16:21 | 48.25533 | -120.84816 | 37053 ft | 431 kts | 284° |
| 2026-05-06 16:22 | 48.27021 | -120.93535 | 37070 ft | 432 kts | 283° |
| 2026-05-06 16:22 | 48.28496 | -121.02212 | 37092 ft | 432 kts | 284° |
| 2026-05-06 16:23 | 48.29973 | -121.10963 | 37089 ft | 433 kts | 283° |
| 2026-05-06 16:23 | 48.31202 | -121.18250 | 37107 ft | 434 kts | 283° |
| 2026-05-06 16:24 | 48.32182 | -121.24100 | 36846 ft | 432 kts | 283° |
| 2026-05-06 16:24 | 48.32916 | -121.28487 | 36515 ft | 432 kts | 283° |
| 2026-05-06 16:24 | 48.33644 | -121.32834 | 35887 ft | 426 kts | 284° |
| 2026-05-06 16:24 | 48.34364 | -121.37150 | 35162 ft | 427 kts | 284° |
| 2026-05-06 16:25 | 48.35074 | -121.41435 | 34372 ft | 430 kts | 284° |
| 2026-05-06 16:25 | 48.35797 | -121.45810 | 33438 ft | 432 kts | 284° |
| 2026-05-06 16:25 | 48.36522 | -121.50206 | 32542 ft | 434 kts | 284° |
| 2026-05-06 16:25 | 48.37247 | -121.54615 | 31630 ft | 435 kts | 284° |
| 2026-05-06 16:26 | 48.37972 | -121.59037 | 30696 ft | 437 kts | 284° |
| 2026-05-06 16:26 | 48.38702 | -121.63495 | 29648 ft | 440 kts | 284° |
| 2026-05-06 16:26 | 48.39457 | -121.67953 | 28667 ft | 440 kts | 286° |
| 2026-05-06 16:26 | 48.40553 | -121.72152 | 28041 ft | 435 kts | 296° |
| 2026-05-06 16:27 | 48.42167 | -121.75984 | 27356 ft | 432 kts | 303° |
| 2026-05-06 16:27 | 48.43925 | -121.79647 | 26647 ft | 430 kts | 303° |
| 2026-05-06 16:27 | 48.45687 | -121.83262 | 25899 ft | 428 kts | 303° |
| 2026-05-06 16:27 | 48.47434 | -121.86866 | 25179 ft | 425 kts | 303° |
| 2026-05-06 16:28 | 48.49167 | -121.90473 | 24446 ft | 424 kts | 303° |
| 2026-05-06 16:28 | 48.50887 | -121.94062 | 23742 ft | 421 kts | 303° |
| 2026-05-06 16:28 | 48.52604 | -121.97629 | 22924 ft | 418 kts | 303° |
| 2026-05-06 16:28 | 48.54297 | -122.01152 | 22194 ft | 413 kts | 303° |
| 2026-05-06 16:29 | 48.55952 | -122.04605 | 21486 ft | 409 kts | 303° |
| 2026-05-06 16:29 | 48.57606 | -122.08065 | 20771 ft | 406 kts | 303° |
| 2026-05-06 16:29 | 48.59210 | -122.11550 | 20043 ft | 401 kts | 299° |
| 2026-05-06 16:29 | 48.60500 | -122.15249 | 19340 ft | 396 kts | 293° |
| 2026-05-06 16:30 | 48.61642 | -122.19027 | 18642 ft | 395 kts | 292° |
| 2026-05-06 16:30 | 48.62023 | -122.20304 | 18386 ft | 395 kts | 292° |
| 2026-05-06 16:30 | 48.63889 | -122.26556 | 16991 ft | 390 kts | 292° |
| 2026-05-06 16:30 | 48.65001 | -122.30277 | 16207 ft | 387 kts | 293° |
| 2026-05-06 16:31 | 48.66106 | -122.33970 | 15481 ft | 383 kts | 293° |
| 2026-05-06 16:31 | 48.67186 | -122.37583 | 14761 ft | 380 kts | 293° |
| 2026-05-06 16:31 | 48.68270 | -122.41215 | 14031 ft | 377 kts | 293° |
| 2026-05-06 16:31 | 48.69345 | -122.44820 | 13225 ft | 374 kts | 293° |
| 2026-05-06 16:32 | 48.70413 | -122.48381 | 12529 ft | 369 kts | 294° |
| 2026-05-06 16:32 | 48.71737 | -122.51694 | 12131 ft | 369 kts | 307° |
| 2026-05-06 16:32 | 48.73456 | -122.54590 | 12015 ft | 371 kts | 312° |
| 2026-05-06 16:32 | 48.75246 | -122.57402 | 11989 ft | 368 kts | 312° |
| 2026-05-06 16:33 | 48.76995 | -122.60145 | 11642 ft | 358 kts | 312° |
| 2026-05-06 16:33 | 48.78713 | -122.62853 | 11433 ft | 365 kts | 312° |
| 2026-05-06 16:33 | 48.80479 | -122.65643 | 11285 ft | 367 kts | 312° |
| 2026-05-06 16:34 | 48.84001 | -122.71218 | 10991 ft | 365 kts | 312° |
| 2026-05-06 16:34 | 48.85755 | -122.74001 | 10869 ft | 364 kts | 312° |
| 2026-05-06 16:34 | 48.87492 | -122.76760 | 10726 ft | 356 kts | 312° |
| 2026-05-06 16:34 | 48.89155 | -122.79400 | 10618 ft | 336 kts | 312° |
| 2026-05-06 16:35 | 48.90724 | -122.81893 | 10485 ft | 318 kts | 311° |
| 2026-05-06 16:35 | 48.92212 | -122.84261 | 10357 ft | 301 kts | 311° |
| 2026-05-06 16:35 | 48.93600 | -122.86478 | 10240 ft | 287 kts | 311° |
| 2026-05-06 16:35 | 48.94946 | -122.88631 | 10138 ft | 275 kts | 311° |
| 2026-05-06 16:36 | 48.96237 | -122.90693 | 10032 ft | 262 kts | 311° |
| 2026-05-06 16:36 | 48.97466 | -122.92659 | 9872 ft | 253 kts | 311° |
| 2026-05-06 16:36 | 48.98675 | -122.94596 | 9523 ft | 251 kts | 311° |
| 2026-05-06 16:36 | 48.99874 | -122.96516 | 9240 ft | 250 kts | 311° |
| 2026-05-06 16:37 | 49.01071 | -122.98435 | 8993 ft | 248 kts | 311° |
| 2026-05-06 16:37 | 49.02222 | -123.00281 | 8806 ft | 240 kts | 311° |
| 2026-05-06 16:37 | 49.03361 | -123.02109 | 8573 ft | 237 kts | 311° |
| 2026-05-06 16:37 | 49.04496 | -123.03936 | 8321 ft | 238 kts | 311° |
| 2026-05-06 16:38 | 49.05547 | -123.05865 | 8083 ft | 235 kts | 300° |
| 2026-05-06 16:38 | 49.06297 | -123.08062 | 7788 ft | 233 kts | 293° |
| 2026-05-06 16:38 | 49.06956 | -123.10331 | 7537 ft | 234 kts | 292° |
| 2026-05-06 16:38 | 49.07609 | -123.12603 | 7317 ft | 234 kts | 292° |
| 2026-05-06 16:39 | 49.08265 | -123.14874 | 7086 ft | 234 kts | 292° |
| 2026-05-06 16:39 | 49.08924 | -123.17146 | 6866 ft | 233 kts | 292° |
| 2026-05-06 16:39 | 49.09513 | -123.19416 | 6649 ft | 233 kts | 284° |
| 2026-05-06 16:39 | 49.09851 | -123.21787 | 6480 ft | 225 kts | 279° |
| 2026-05-06 16:40 | 49.10112 | -123.24111 | 6292 ft | 221 kts | 279° |
| 2026-05-06 16:40 | 49.10366 | -123.26419 | 6086 ft | 221 kts | 278° |
| 2026-05-06 16:40 | 49.10626 | -123.28731 | 5870 ft | 221 kts | 279° |
| 2026-05-06 16:40 | 49.10799 | -123.30261 | 5746 ft | 221 kts | 279° |
| 2026-05-06 16:41 | 49.11147 | -123.33358 | 5501 ft | 221 kts | 279° |
| 2026-05-06 16:41 | 49.11409 | -123.35667 | 5334 ft | 220 kts | 279° |
| 2026-05-06 16:41 | 49.11664 | -123.37945 | 5180 ft | 221 kts | 279° |
| 2026-05-06 16:41 | 49.11946 | -123.40254 | 5008 ft | 221 kts | 282° |
| 2026-05-06 16:42 | 49.12222 | -123.42563 | 4832 ft | 221 kts | 279° |
| 2026-05-06 16:42 | 49.12462 | -123.44889 | 4668 ft | 222 kts | 279° |
| 2026-05-06 16:42 | 49.12710 | -123.47216 | 4494 ft | 223 kts | 279° |
| 2026-05-06 16:42 | 49.12966 | -123.49551 | 4331 ft | 223 kts | 279° |
| 2026-05-06 16:43 | 49.13136 | -123.51094 | 4227 ft | 223 kts | 279° |
| 2026-05-06 16:43 | 49.13394 | -123.53428 | 4050 ft | 223 kts | 278° |
| 2026-05-06 16:43 | 49.13703 | -123.56569 | 3924 ft | 224 kts | 276° |
| 2026-05-06 16:43 | 49.14128 | -123.58904 | 3912 ft | 246 kts | 294° |
| 2026-05-06 16:44 | 49.15195 | -123.60850 | 3905 ft | 234 kts | 327° |
| 2026-05-06 16:44 | 49.16720 | -123.61518 | 3899 ft | 230 kts | 3° |
| 2026-05-06 16:44 | 49.18200 | -123.60718 | 3698 ft | 227 kts | 37° |
| 2026-05-06 16:44 | 49.19205 | -123.58896 | 3471 ft | 223 kts | 63° |
| 2026-05-06 16:45 | 49.19815 | -123.56796 | 3397 ft | 209 kts | 69° |
| 2026-05-06 16:45 | 49.20143 | -123.55448 | 3345 ft | 200 kts | 71° |
| 2026-05-06 16:45 | 49.20567 | -123.53492 | 3265 ft | 187 kts | 74° |
| 2026-05-06 16:45 | 49.20903 | -123.51628 | 3182 ft | 179 kts | 77° |
| 2026-05-06 16:46 | 49.21236 | -123.49162 | 3078 ft | 179 kts | 81° |
| 2026-05-06 16:46 | 49.21395 | -123.47295 | 3000 ft | 177 kts | 85° |
| 2026-05-06 16:46 | 49.21469 | -123.45416 | 2994 ft | 177 kts | 88° |
| 2026-05-06 16:46 | 49.21507 | -123.44176 | 3007 ft | 175 kts | 86° |
| 2026-05-06 16:47 | 49.21444 | -123.42329 | 2931 ft | 172 kts | 100° |
| 2026-05-06 16:47 | 49.21252 | -123.40545 | 2759 ft | 169 kts | 102° |
| 2026-05-06 16:47 | 49.21046 | -123.38774 | 2482 ft | 169 kts | 103° |
| 2026-05-06 16:47 | 49.20795 | -123.36514 | 2163 ft | 154 kts | 103° |
| 2026-05-06 16:48 | 49.20621 | -123.34977 | 1956 ft | 141 kts | 103° |
| 2026-05-06 16:48 | 49.20456 | -123.33548 | 1778 ft | 133 kts | 101° |
| 2026-05-06 16:48 | 49.20301 | -123.32170 | 1586 ft | 128 kts | 102° |
| 2026-05-06 16:48 | 49.20202 | -123.31296 | 1475 ft | 125 kts | 102° |
| 2026-05-06 16:49 | 49.20054 | -123.29992 | 1317 ft | 124 kts | 101° |
| 2026-05-06 16:49 | 49.19907 | -123.28694 | 1140 ft | 123 kts | 102° |
| 2026-05-06 16:49 | 49.19706 | -123.26994 | 936 ft | 122 kts | 103° |
| 2026-05-06 16:49 | 49.19548 | -123.25731 | 805 ft | 120 kts | 99° |
| 2026-05-06 16:50 | 49.19478 | -123.24871 | 657 ft | 121 kts | 98° |
| 2026-05-06 16:50 | 49.19363 | -123.23626 | 430 ft | 119 kts | 103° |
| 2026-05-06 16:50 | 49.19197 | -123.22419 | 312 ft | 113 kts | 100° |
| 2026-05-06 16:50 | 49.19072 | -123.21248 | 117 ft | 111 kts | 99° |
| 2026-05-06 16:51 | 49.18939 | -123.20107 | 31 ft | 102 kts | 99° |
| 2026-05-06 16:51 | 49.18833 | -123.19198 | 29 ft | 71 kts | 100° |
| 2026-05-06 16:51 | 49.18765 | -123.18623 | 27 ft | 48 kts | 96° |
| 2026-05-06 16:51 | 49.18856 | -123.18137 | 29 ft | 23 kts | 47° |
| 2026-05-06 16:52 | 49.18948 | -123.18073 | 29 ft | 22 kts | 12° |
| 2026-05-06 16:52 | 49.19097 | -123.18059 | 29 ft | 23 kts | 4° |
| 2026-05-06 16:52 | 49.19177 | -123.18041 | 29 ft | 0 kts | 9° |